Time;durP1;ratioP1;P1;durP2;ratioP2;P2;SDS_P1;SDS_P2;PMS_P1;PMS_P2;Temp;Humidity;BMP_temperature;BMP_pressure;BME280_temperature;BME280_humidity;BME280_pressure;Samples;Min_cycle;Max_cycle;Signal;HPM_P1;HPM_P2
2023/09/23 00:02:25;;;;;;;12.25;11.65;;;12.20;99.90;;;;;;4976914;28;20707;-80
2023/09/23 00:04:52;;;;;;;13.13;12.48;;;12.20;99.90;;;;;;4977521;28;20085;-80
2023/09/23 00:07:19;;;;;;;13.45;12.65;;;12.20;99.90;;;;;;4971451;28;20664;-79
2023/09/23 00:09:46;;;;;;;13.35;12.65;;;12.20;99.90;;;;;;4976514;28;20129;-79
2023/09/23 00:12:13;;;;;;;12.48;11.88;;;12.20;99.90;;;;;;4966135;28;20047;-79
2023/09/23 00:14:41;;;;;;;13.70;12.70;;;12.10;99.90;;;;;;4963913;28;20043;-80
2023/09/23 00:17:08;;;;;;;14.52;13.57;;;12.20;99.90;;;;;;4960915;28;20043;-80
2023/09/23 00:19:35;;;;;;;12.90;12.25;;;12.10;99.90;;;;;;4968089;28;20067;-79
2023/09/23 00:22:02;;;;;;;13.00;12.23;;;12.10;99.90;;;;;;4994354;28;20046;-81
2023/09/23 00:24:30;;;;;;;14.88;14.07;;;12.10;99.90;;;;;;4981261;28;20049;-79
2023/09/23 00:26:59;;;;;;;15.05;14.13;;;12.00;99.90;;;;;;4981115;28;20716;-80
2023/09/23 00:29:29;;;;;;;14.43;13.73;;;12.00;99.90;;;;;;4977631;28;20387;-79
2023/09/23 00:31:57;;;;;;;14.63;13.70;;;12.00;99.90;;;;;;4981024;28;20525;-80
2023/09/23 00:34:24;;;;;;;13.70;13.00;;;11.90;99.90;;;;;;5007383;28;20050;-80
2023/09/23 00:36:51;;;;;;;14.45;13.65;;;11.90;99.90;;;;;;4981654;28;20628;-79
2023/09/23 00:39:19;;;;;;;14.38;13.57;;;11.80;99.90;;;;;;4975272;28;20053;-79
2023/09/23 00:41:46;;;;;;;14.57;13.65;;;11.80;99.90;;;;;;4987094;28;20057;-80
2023/09/23 00:44:12;;;;;;;15.10;13.90;;;11.80;99.90;;;;;;4980493;28;20058;-80
2023/09/23 00:46:44;;;;;;;14.32;13.52;;;11.70;99.90;;;;;;4980547;28;20132;-81
2023/09/23 00:49:12;;;;;;;14.35;13.38;;;11.70;99.90;;;;;;4981058;28;20077;-81
2023/09/23 00:51:40;;;;;;;14.32;13.52;;;11.70;99.90;;;;;;4988525;28;20042;-80
2023/09/23 00:54:07;;;;;;;13.77;13.07;;;11.70;99.90;;;;;;4988862;28;20072;-78
2023/09/23 00:56:36;;;;;;;14.77;13.80;;;11.70;99.90;;;;;;5011209;28;20280;-80
2023/09/23 00:59:06;;;;;;;14.63;13.80;;;11.70;99.90;;;;;;4977493;28;20054;-83
2023/09/23 01:01:34;;;;;;;14.70;13.95;;;11.70;99.90;;;;;;4999383;28;20105;-81
2023/09/23 01:04:01;;;;;;;15.68;14.70;;;11.70;99.90;;;;;;4992311;28;20049;-81
2023/09/23 01:06:28;;;;;;;14.50;13.60;;;11.60;99.90;;;;;;4978873;28;20803;-80
2023/09/23 01:08:57;;;;;;;15.00;14.20;;;11.60;99.90;;;;;;4969483;28;20050;-80
2023/09/23 01:11:26;;;;;;;16.30;15.40;;;11.60;99.90;;;;;;4963558;28;20568;-81
2023/09/23 01:13:53;;;;;;;15.85;14.90;;;11.60;99.90;;;;;;4992371;28;20046;-80
2023/09/23 01:16:21;;;;;;;15.20;14.30;;;11.60;99.90;;;;;;5008320;28;20149;-81
2023/09/23 01:18:51;;;;;;;14.98;14.18;;;11.50;99.90;;;;;;4960787;28;20145;-80
2023/09/23 01:21:18;;;;;;;16.08;15.02;;;11.50;99.90;;;;;;4983545;28;20152;-83
2023/09/23 01:23:45;;;;;;;15.30;14.40;;;11.50;99.90;;;;;;4976187;28;20089;-81
2023/09/23 01:26:12;;;;;;;15.05;14.23;;;11.50;99.90;;;;;;4963764;28;20042;-80
2023/09/23 01:28:39;;;;;;;14.48;13.68;;;11.50;99.90;;;;;;4978920;28;20050;-81
2023/09/23 01:31:07;;;;;;;14.90;13.90;;;11.50;99.90;;;;;;4992247;28;20047;-81
2023/09/23 01:33:34;;;;;;;14.60;13.70;;;11.50;99.90;;;;;;4984116;28;20037;-82
2023/09/23 01:36:03;;;;;;;14.52;13.82;;;11.50;99.90;;;;;;4991638;28;20047;-81
2023/09/23 01:38:31;;;;;;;14.80;14.00;;;11.50;99.90;;;;;;4965837;28;20046;-81
2023/09/23 01:40:59;;;;;;;14.65;13.85;;;11.50;99.90;;;;;;4981435;28;20046;-83
2023/09/23 01:43:26;;;;;;;15.73;14.88;;;11.50;99.90;;;;;;4984083;28;20129;-82
2023/09/23 01:45:58;;;;;;;16.10;15.10;;;11.40;99.90;;;;;;4973392;28;20077;-83
2023/09/23 01:48:29;;;;;;;15.35;14.52;;;11.40;99.90;;;;;;4979392;28;20464;-82
2023/09/23 01:50:59;;;;;;;15.27;14.32;;;11.40;99.90;;;;;;4978503;28;20046;-80
2023/09/23 01:53:28;;;;;;;13.98;13.18;;;11.40;99.90;;;;;;4980239;28;20053;-82
2023/09/23 01:55:55;;;;;;;14.52;13.52;;;11.40;99.90;;;;;;4980795;28;20049;-81
2023/09/23 01:58:22;;;;;;;13.23;12.52;;;11.40;99.90;;;;;;4983484;28;20046;-84
2023/09/23 02:00:55;;;;;;;15.15;14.10;;;11.30;99.90;;;;;;4990928;28;20054;-81
2023/09/23 02:03:23;;;;;;;14.23;13.38;;;11.30;99.90;;;;;;4976157;28;20054;-83
2023/09/23 02:05:51;;;;;;;13.40;12.70;;;11.30;99.90;;;;;;4991403;28;20061;-81
2023/09/23 02:08:18;;;;;;;12.70;11.98;;;11.30;99.90;;;;;;4977337;28;20456;-85
2023/09/23 02:10:48;;;;;;;14.65;13.65;;;11.40;99.90;;;;;;4983811;28;20412;-83
2023/09/23 02:13:15;;;;;;;13.88;12.98;;;11.40;99.90;;;;;;4980929;28;20054;-81
2023/09/23 02:15:43;;;;;;;13.25;12.55;;;11.30;99.90;;;;;;4980926;28;20135;-83
2023/09/23 02:18:10;;;;;;;14.05;13.15;;;11.30;99.90;;;;;;4989936;28;20081;-82
2023/09/23 02:20:38;;;;;;;13.73;12.82;;;11.30;99.90;;;;;;4979316;28;20049;-82
2023/09/23 02:23:05;;;;;;;13.98;13.07;;;11.30;99.90;;;;;;4983490;28;20047;-83
2023/09/23 02:25:33;;;;;;;13.65;12.68;;;11.30;99.90;;;;;;4980847;28;20126;-84
2023/09/23 02:28:00;;;;;;;13.40;12.40;;;11.20;99.90;;;;;;4990198;28;20109;-83
2023/09/23 02:30:27;;;;;;;12.30;11.45;;;11.20;99.90;;;;;;4974963;28;20046;-85
2023/09/23 02:32:53;;;;;;;12.20;11.40;;;11.20;99.90;;;;;;4989020;28;20432;-82
2023/09/23 02:35:20;;;;;;;12.23;11.32;;;11.20;99.90;;;;;;4985432;28;20088;-82
2023/09/23 02:37:48;;;;;;;12.70;11.80;;;11.20;99.90;;;;;;4993526;28;21642;-85
2023/09/23 02:40:17;;;;;;;12.52;11.65;;;11.10;99.90;;;;;;4979075;28;20077;-82
2023/09/23 02:42:51;;;;;;;13.18;11.98;;;11.10;99.90;;;;;;4967069;28;20129;-80
2023/09/23 02:45:20;;;;;;;12.57;11.57;;;11.20;99.90;;;;;;4980097;28;20301;-91
2023/09/23 02:47:47;;;;;;;13.40;12.48;;;11.10;99.90;;;;;;4987398;28;20053;-82
2023/09/23 02:50:15;;;;;;;12.50;11.50;;;11.10;99.90;;;;;;4991163;28;20124;-83
2023/09/23 02:52:44;;;;;;;11.45;10.68;;;11.10;99.90;;;;;;4981142;28;20070;-83
2023/09/23 02:55:14;;;;;;;11.70;10.88;;;11.20;99.90;;;;;;4980704;28;20130;-82
2023/09/23 02:57:49;;;;;;;13.10;12.10;;;11.20;99.90;;;;;;4985512;28;20049;-81
2023/09/23 03:00:17;;;;;;;11.52;10.82;;;11.20;99.90;;;;;;4980200;28;20050;-85
2023/09/23 03:02:48;;;;;;;12.70;11.77;;;11.20;99.90;;;;;;4980936;28;20054;-84
2023/09/23 03:05:16;;;;;;;12.02;11.13;;;11.20;99.90;;;;;;4982681;28;20259;-85
2023/09/23 03:07:50;;;;;;;12.73;11.52;;;11.10;99.90;;;;;;4984514;28;20050;-82
2023/09/23 03:10:31;;;;;;;12.43;11.52;;;11.10;99.90;;;;;;4964711;28;20043;-84
2023/09/23 03:13:10;;;;;;;12.45;11.65;;;11.10;99.90;;;;;;4972078;28;20097;-83
2023/09/23 03:15:44;;;;;;;13.00;12.00;;;11.10;99.90;;;;;;4983204;28;20047;-81
2023/09/23 03:18:14;;;;;;;13.40;12.30;;;11.10;99.90;;;;;;4983620;28;20050;-85
2023/09/23 03:20:44;;;;;;;13.02;11.93;;;11.20;99.90;;;;;;4964294;28;20289;-86
2023/09/23 03:23:10;;;;;;;12.75;11.75;;;11.10;99.90;;;;;;4968210;28;20642;-83
2023/09/23 03:25:45;;;;;;;14.50;13.40;;;11.10;99.90;;;;;;4983755;28;20062;-85
2023/09/23 03:28:17;;;;;;;13.57;12.55;;;11.10;99.90;;;;;;4992491;28;20047;-83
2023/09/23 03:30:49;;;;;;;14.27;13.00;;;11.10;99.90;;;;;;4964238;28;20042;-81
2023/09/23 03:33:20;;;;;;;;;;;11.10;99.90;;;;;;4987400;28;20046;-87
2023/09/23 03:35:49;;;;;;;13.65;12.65;;;11.00;99.90;;;;;;5021165;28;19922;-88
2023/09/23 03:38:16;;;;;;;13.77;12.77;;;11.10;99.90;;;;;;4991550;28;20116;-85
2023/09/23 03:40:52;;;;;;;13.32;12.23;;;11.00;99.90;;;;;;4982534;28;20568;-83
2023/09/23 03:43:21;;;;;;;13.02;12.05;;;11.00;99.90;;;;;;4987333;28;20062;-86
2023/09/23 03:45:48;;;;;;;13.35;12.13;;;11.10;99.90;;;;;;4986509;28;20046;-84
2023/09/23 03:48:15;;;;;;;13.88;12.75;;;11.00;99.90;;;;;;4968947;28;20609;-81
2023/09/23 03:50:43;;;;;;;13.90;12.77;;;11.00;99.90;;;;;;4979253;28;20053;-82
2023/09/23 03:53:12;;;;;;;13.82;12.73;;;11.10;99.90;;;;;;4989207;28;20050;-84
2023/09/23 03:55:39;;;;;;;14.60;13.43;;;11.10;99.90;;;;;;4964034;28;20057;-85
2023/09/23 03:58:06;;;;;;;14.32;13.38;;;11.10;99.90;;;;;;4971742;28;20052;-83
2023/09/23 04:00:34;;;;;;;14.30;13.40;;;11.10;99.90;;;;;;4981622;28;20056;-83
2023/09/23 04:03:01;;;;;;;14.73;13.65;;;11.10;99.90;;;;;;5014890;28;20133;-84
2023/09/23 04:05:31;;;;;;;14.02;13.13;;;11.00;99.90;;;;;;4983928;28;20046;-82
2023/09/23 04:07:58;;;;;;;15.07;13.98;;;11.00;99.90;;;;;;4986747;28;20072;-83
2023/09/23 04:10:26;;;;;;;15.02;13.90;;;11.00;99.90;;;;;;4984928;28;20039;-88
2023/09/23 04:12:54;;;;;;;14.30;13.30;;;11.10;99.90;;;;;;4987981;28;20300;-83
2023/09/23 04:15:22;;;;;;;14.40;13.40;;;11.10;99.90;;;;;;4979219;28;20895;-84
2023/09/23 04:17:49;;;;;;;14.10;13.10;;;11.00;99.90;;;;;;4984059;28;20042;-84
2023/09/23 04:20:16;;;;;;;13.73;12.82;;;11.00;99.90;;;;;;4984848;28;20077;-86
2023/09/23 04:22:46;;;;;;;13.40;12.60;;;11.00;99.90;;;;;;4970338;28;20204;-83
2023/09/23 04:25:15;;;;;;;14.30;13.40;;;11.00;99.90;;;;;;4987193;28;20488;-84
2023/09/23 04:27:42;;;;;;;14.93;13.75;;;11.00;99.90;;;;;;4969609;28;20050;-82
2023/09/23 04:30:11;;;;;;;14.43;13.57;;;11.00;99.90;;;;;;4969217;28;20101;-82
2023/09/23 04:32:40;;;;;;;15.43;14.43;;;11.00;99.90;;;;;;4990052;28;20052;-83
2023/09/23 04:35:15;;;;;;;16.08;14.88;;;11.00;99.90;;;;;;4984863;28;20689;-85
2023/09/23 04:37:42;;;;;;;15.23;14.32;;;10.90;99.90;;;;;;4976777;28;20109;-83
2023/09/23 04:40:12;;;;;;;15.90;14.68;;;10.90;99.90;;;;;;4990173;28;20077;-82
2023/09/23 04:42:41;;;;;;;15.85;14.73;;;11.00;99.90;;;;;;4985521;28;20069;-87
2023/09/23 04:45:09;;;;;;;16.88;15.57;;;11.00;99.90;;;;;;4997703;28;20112;-83
2023/09/23 04:47:37;;;;;;;17.15;15.57;;;10.90;99.90;;;;;;5003445;28;20053;-87
2023/09/23 04:50:07;;;;;;;16.33;14.88;;;10.90;99.90;;;;;;5003321;28;20089;-84
2023/09/23 04:52:34;;;;;;;17.73;16.52;;;10.90;99.90;;;;;;5002698;28;20069;-83
2023/09/23 04:55:02;;;;;;;18.02;16.70;;;10.90;99.90;;;;;;5008639;28;20041;-81
2023/09/23 04:57:29;;;;;;;17.75;16.40;;;10.90;99.90;;;;;;4985569;28;20126;-83
2023/09/23 04:59:57;;;;;;;17.10;16.00;;;11.00;99.90;;;;;;4973566;28;20483;-81
2023/09/23 05:02:25;;;;;;;19.00;17.63;;;11.00;99.90;;;;;;4965968;28;20057;-82
2023/09/23 05:04:53;;;;;;;18.05;16.80;;;10.90;99.90;;;;;;4986466;28;20050;-82
2023/09/23 05:07:21;;;;;;;17.75;16.55;;;11.00;99.90;;;;;;4982874;28;20137;-83
2023/09/23 05:09:49;;;;;;;17.15;16.05;;;11.00;99.90;;;;;;5011692;28;20046;-83
2023/09/23 05:12:16;;;;;;;17.80;16.52;;;11.00;99.90;;;;;;4967103;28;20647;-83
2023/09/23 05:14:43;;;;;;;17.77;16.55;;;11.00;99.90;;;;;;4982945;28;20043;-84
2023/09/23 05:17:14;;;;;;;18.83;17.00;;;11.10;99.90;;;;;;4992618;28;20085;-83
2023/09/23 05:19:47;;;;;;;19.88;18.17;;;11.10;99.90;;;;;;4979348;28;20406;-83
2023/09/23 05:22:14;;;;;;;18.88;17.35;;;11.10;99.90;;;;;;4990382;28;20564;-83
2023/09/23 05:24:41;;;;;;;21.10;19.38;;;11.10;99.90;;;;;;4984454;28;21232;-85
2023/09/23 05:27:09;;;;;;;19.95;18.38;;;11.20;99.90;;;;;;4992543;28;20540;-86
2023/09/23 05:29:37;;;;;;;19.98;18.27;;;11.20;99.90;;;;;;4977366;28;20061;-85
2023/09/23 05:32:04;;;;;;;19.80;18.30;;;11.30;99.90;;;;;;4966778;28;20034;-82
2023/09/23 05:34:31;;;;;;;21.10;19.40;;;11.30;99.90;;;;;;4979095;28;20593;-87
2023/09/23 05:36:58;;;;;;;20.15;18.45;;;11.30;99.90;;;;;;4987628;28;20041;-81
2023/09/23 05:39:25;;;;;;;20.20;18.27;;;11.20;99.90;;;;;;4983357;28;20042;-84
2023/09/23 05:41:53;;;;;;;19.60;18.00;;;11.30;99.90;;;;;;4961443;28;20160;-82
2023/09/23 05:44:20;;;;;;;19.25;17.50;;;11.20;99.90;;;;;;4980208;28;20050;-82
2023/09/23 05:46:48;;;;;;;19.67;18.02;;;11.30;99.90;;;;;;4966466;28;20642;-85
2023/09/23 05:49:15;;;;;;;19.05;17.40;;;11.30;99.90;;;;;;4984333;28;20046;-85
2023/09/23 05:51:43;;;;;;;20.55;18.80;;;11.30;99.90;;;;;;4975284;28;20260;-81
2023/09/23 05:54:11;;;;;;;22.15;20.27;;;11.30;99.90;;;;;;4998373;28;20042;-82
2023/09/23 05:56:38;;;;;;;21.17;19.27;;;11.30;99.90;;;;;;4983083;28;21174;-86
2023/09/23 05:59:10;;;;;;;21.60;19.55;;;11.30;99.90;;;;;;4964531;28;20077;-82
2023/09/23 06:01:40;;;;;;;21.73;19.83;;;11.30;99.90;;;;;;4979139;28;20097;-81
2023/09/23 06:04:09;;;;;;;21.80;19.77;;;11.40;99.90;;;;;;4987497;28;20110;-83
2023/09/23 06:06:40;;;;;;;21.98;20.00;;;11.40;99.90;;;;;;4985514;28;20615;-82
2023/09/23 06:09:07;;;;;;;23.67;21.30;;;11.40;99.90;;;;;;4985813;28;20523;-81
2023/09/23 06:11:34;;;;;;;23.55;21.33;;;11.50;99.90;;;;;;4983995;28;20066;-85
2023/09/23 06:14:01;;;;;;;23.52;21.45;;;11.40;99.90;;;;;;4984853;28;20460;-82
2023/09/23 06:16:29;;;;;;;23.75;21.55;;;11.40;99.90;;;;;;4968925;28;20576;-87
2023/09/23 06:18:55;;;;;;;23.40;21.30;;;11.40;99.90;;;;;;4996508;28;20046;-84
2023/09/23 06:21:22;;;;;;;24.58;21.92;;;11.50;99.90;;;;;;4965965;28;20066;-86
2023/09/23 06:23:50;;;;;;;24.83;22.25;;;11.50;99.90;;;;;;4983345;28;20670;-84
2023/09/23 06:26:16;;;;;;;25.92;23.58;;;11.50;99.90;;;;;;4979817;28;20038;-82
2023/09/23 06:28:43;;;;;;;24.60;22.30;;;11.50;99.90;;;;;;4982074;28;20722;-81
2023/09/23 06:31:10;;;;;;;24.95;22.42;;;11.60;99.90;;;;;;4984705;28;20132;-83
2023/09/23 06:33:39;;;;;;;25.40;22.02;;;11.50;99.90;;;;;;4987582;28;20042;-83
2023/09/23 06:36:05;;;;;;;24.70;22.50;;;11.60;99.90;;;;;;4989701;28;20050;-84
2023/09/23 06:38:33;;;;;;;25.75;23.38;;;11.70;99.90;;;;;;4985506;28;20030;-82
2023/09/23 06:40:59;;;;;;;25.52;22.92;;;11.70;99.90;;;;;;4987534;28;20472;-80
2023/09/23 06:43:26;;;;;;;25.95;23.35;;;11.80;99.90;;;;;;4971522;28;20437;-84
2023/09/23 06:45:55;;;;;;;26.67;23.85;;;11.70;99.90;;;;;;4987813;28;20046;-80
2023/09/23 06:48:22;;;;;;;27.00;22.77;;;11.80;99.90;;;;;;5016408;28;20054;-83
2023/09/23 06:51:03;;;;;;;24.40;22.08;;;11.80;99.90;;;;;;4968691;28;20073;-81
2023/09/23 06:53:31;;;;;;;27.65;22.70;;;11.80;99.90;;;;;;4979618;28;20053;-85
2023/09/23 06:55:57;;;;;;;25.27;22.98;;;11.80;99.90;;;;;;4981732;28;20053;-81
2023/09/23 06:58:24;;;;;;;24.35;22.17;;;11.80;99.90;;;;;;4988626;28;20133;-82
2023/09/23 07:00:51;;;;;;;25.80;23.13;;;11.90;99.90;;;;;;4978361;28;20057;-81
2023/09/23 07:03:18;;;;;;;25.40;23.35;;;11.90;99.90;;;;;;4984704;28;20042;-81
2023/09/23 07:05:45;;;;;;;26.20;23.50;;;12.00;99.90;;;;;;4984810;28;20209;-82
2023/09/23 07:08:15;;;;;;;25.77;23.35;;;12.00;99.90;;;;;;4985252;28;20545;-81
2023/09/23 07:10:42;;;;;;;26.15;23.88;;;12.10;99.90;;;;;;4980490;28;20381;-83
2023/09/23 07:13:08;;;;;;;26.25;23.92;;;12.20;99.90;;;;;;4981989;28;20092;-81
2023/09/23 07:15:40;;;;;;;24.50;22.52;;;12.20;99.90;;;;;;4983882;28;20092;-82
2023/09/23 07:18:09;;;;;;;25.33;23.10;;;12.30;99.90;;;;;;4981719;28;20137;-82
2023/09/23 07:20:36;;;;;;;24.63;22.50;;;12.30;99.90;;;;;;5000102;28;20038;-81
2023/09/23 07:23:03;;;;;;;24.25;22.38;;;12.30;99.90;;;;;;4981553;28;20042;-80
2023/09/23 07:25:36;;;;;;;24.77;22.48;;;12.30;99.90;;;;;;4979003;28;20122;-81
2023/09/23 07:28:06;;;;;;;24.42;22.25;;;12.20;99.90;;;;;;4995968;28;20049;-83
2023/09/23 07:30:34;;;;;;;23.60;21.63;;;12.20;99.90;;;;;;4978054;28;20043;-83
2023/09/23 07:33:02;;;;;;;24.42;22.10;;;12.30;99.90;;;;;;4990063;28;20047;-78
2023/09/23 07:35:31;;;;;;;24.95;22.30;;;12.30;99.90;;;;;;4982822;28;20050;-78
2023/09/23 07:37:59;;;;;;;23.55;21.83;;;12.50;99.90;;;;;;4965889;28;20042;-78
2023/09/23 07:40:28;;;;;;;23.67;21.27;;;12.60;99.90;;;;;;4979052;28;20048;-79
2023/09/23 07:42:55;;;;;;;23.65;21.95;;;12.70;99.90;;;;;;5011929;28;20054;-81
2023/09/23 07:45:22;;;;;;;23.95;21.85;;;12.70;99.90;;;;;;4984874;28;20849;-79
2023/09/23 07:47:49;;;;;;;23.85;21.65;;;12.60;99.90;;;;;;4979050;28;20046;-78
2023/09/23 07:50:16;;;;;;;22.30;20.40;;;12.60;99.90;;;;;;4976892;28;20070;-79
2023/09/23 07:52:43;;;;;;;22.75;21.08;;;12.70;99.90;;;;;;4983994;28;20042;-78
2023/09/23 07:55:10;;;;;;;23.38;21.42;;;12.60;99.90;;;;;;4971728;28;20093;-77
2023/09/23 07:57:37;;;;;;;23.10;21.23;;;12.70;99.90;;;;;;4977709;28;20066;-76
2023/09/23 08:00:05;;;;;;;23.52;21.67;;;12.70;99.90;;;;;;4956154;28;20061;-77
2023/09/23 08:02:37;;;;;;;22.13;20.52;;;12.80;99.90;;;;;;4971711;28;20428;-78
2023/09/23 08:05:05;;;;;;;22.40;20.73;;;12.80;99.90;;;;;;4978201;28;20053;-77
2023/09/23 08:07:32;;;;;;;23.38;21.38;;;12.80;99.90;;;;;;4972289;28;20066;-77
2023/09/23 08:09:59;;;;;;;21.85;19.90;;;12.80;99.90;;;;;;4957713;28;20046;-78
2023/09/23 08:12:27;;;;;;;21.05;19.75;;;12.90;99.90;;;;;;4977331;28;20046;-77
2023/09/23 08:14:54;;;;;;;22.15;20.38;;;12.90;99.90;;;;;;4973996;28;20123;-78
2023/09/23 08:17:21;;;;;;;24.00;22.02;;;12.90;99.90;;;;;;5005270;28;20031;-77
2023/09/23 08:19:50;;;;;;;21.92;20.27;;;12.90;99.90;;;;;;4974135;28;20073;-78
2023/09/23 08:22:17;;;;;;;22.20;20.58;;;13.00;99.90;;;;;;4953152;28;20042;-79
2023/09/23 08:24:43;;;;;;;22.70;20.83;;;13.00;99.90;;;;;;4958343;28;20051;-78
2023/09/23 08:27:10;;;;;;;23.38;21.60;;;13.00;99.90;;;;;;4989618;28;20061;-78
2023/09/23 08:29:37;;;;;;;23.13;21.52;;;13.00;99.90;;;;;;4972562;28;20456;-79
2023/09/23 08:32:05;;;;;;;23.23;21.45;;;13.10;99.90;;;;;;4976351;28;20055;-79
2023/09/23 08:34:33;;;;;;;22.92;21.08;;;13.20;99.90;;;;;;4977866;28;20046;-79
2023/09/23 08:37:00;;;;;;;23.33;21.13;;;13.20;99.90;;;;;;4973872;28;20088;-79
2023/09/23 08:39:27;;;;;;;21.85;20.38;;;13.20;99.90;;;;;;4972298;28;20595;-75
2023/09/23 08:41:57;;;;;;;24.45;22.05;;;13.20;99.90;;;;;;4981293;28;20049;-77
2023/09/23 08:44:27;;;;;;;24.83;22.35;;;13.20;99.90;;;;;;4980059;28;20042;-78
2023/09/23 08:46:54;;;;;;;23.83;21.88;;;13.20;99.90;;;;;;4974373;28;20049;-77
2023/09/23 08:49:24;;;;;;;24.55;22.42;;;13.20;99.90;;;;;;4977042;28;20765;-77
2023/09/23 08:51:55;;;;;;;22.95;21.05;;;13.30;99.90;;;;;;4972636;28;20058;-75
2023/09/23 08:54:26;;;;;;;24.20;21.98;;;13.30;99.90;;;;;;4972835;28;20111;-77
2023/09/23 08:56:54;;;;;;;24.02;21.70;;;13.30;99.90;;;;;;4968450;28;20046;-75
2023/09/23 08:59:21;;;;;;;22.70;20.90;;;13.30;99.90;;;;;;5001866;28;20113;-76
2023/09/23 09:01:48;;;;;;;22.65;20.70;;;13.30;99.90;;;;;;4974471;28;20587;-76
2023/09/23 09:04:15;;;;;;;21.60;20.00;;;13.30;99.90;;;;;;4975532;28;20065;-76
2023/09/23 09:06:53;;;;;;;23.58;21.42;;;13.30;99.90;;;;;;4976443;28;20048;-75
2023/09/23 09:09:21;;;;;;;23.38;21.45;;;13.30;99.90;;;;;;4978481;28;20076;-75
2023/09/23 09:11:49;;;;;;;22.20;20.58;;;13.40;99.90;;;;;;4983737;28;20062;-75
2023/09/23 09:14:17;;;;;;;22.20;20.67;;;13.30;99.90;;;;;;4977070;28;20563;-76
2023/09/23 09:16:45;;;;;;;23.05;21.33;;;13.30;99.90;;;;;;4977294;28;20074;-76
2023/09/23 09:19:12;;;;;;;23.23;21.17;;;13.30;99.90;;;;;;4978254;28;20140;-76
2023/09/23 09:21:41;;;;;;;22.25;20.65;;;13.30;99.90;;;;;;4973006;28;20104;-76
2023/09/23 09:24:09;;;;;;;24.17;22.38;;;13.30;99.90;;;;;;4961772;28;20054;-76
2023/09/23 09:26:35;;;;;;;22.55;20.95;;;13.40;99.90;;;;;;4960109;28;20864;-77
2023/09/23 09:29:03;;;;;;;22.58;20.77;;;13.80;99.90;;;;;;4974512;28;20050;-77
2023/09/23 09:31:34;;;;;;;22.88;21.17;;;14.00;99.90;;;;;;4977135;28;20242;-76
2023/09/23 09:34:05;;;;;;;33.03;30.45;;;14.30;99.90;;;;;;4980677;28;20074;-76
2023/09/23 09:36:35;;;;;;;22.75;21.10;;;14.60;99.90;;;;;;4979094;28;20047;-76
2023/09/23 09:39:12;;;;;;;23.08;21.17;;;14.80;99.90;;;;;;4995221;28;20104;-76
2023/09/23 09:41:42;;;;;;;23.10;21.40;;;14.90;99.90;;;;;;4960193;28;20116;-77
2023/09/23 09:44:09;;;;;;;24.10;21.60;;;14.80;99.90;;;;;;4993255;28;20050;-77
2023/09/23 09:46:40;;;;;;;22.50;20.77;;;14.70;99.90;;;;;;4972800;28;20114;-77
2023/09/23 09:49:08;;;;;;;24.38;22.38;;;14.90;99.90;;;;;;4991109;28;20050;-77
2023/09/23 09:51:35;;;;;;;22.80;21.20;;;15.20;99.90;;;;;;4975577;28;20105;-74
2023/09/23 09:54:11;;;;;;;21.58;20.08;;;15.40;99.90;;;;;;4976419;28;20057;-77
2023/09/23 09:56:40;;;;;;;22.48;20.90;;;15.30;99.90;;;;;;4960059;28;20107;-76
2023/09/23 09:59:07;;;;;;;23.13;21.52;;;15.20;99.90;;;;;;4981461;28;20053;-75
2023/09/23 10:01:35;;;;;;;23.42;21.83;;;15.10;99.90;;;;;;4977241;28;20035;-76
2023/09/23 10:04:10;;;;;;;23.48;21.73;;;15.00;99.90;;;;;;5003181;28;20050;-76
2023/09/23 10:06:42;;;;;;;24.00;22.40;;;14.80;99.90;;;;;;4973680;28;20537;-74
2023/09/23 10:09:17;;;;;;;23.08;21.58;;;14.50;99.90;;;;;;4985551;28;20137;-75
2023/09/23 10:11:53;;;;;;;22.88;21.08;;;14.50;99.90;;;;;;4993205;28;20046;-76
2023/09/23 10:14:21;;;;;;;22.55;21.02;;;14.50;99.90;;;;;;4982776;28;20460;-75
2023/09/23 10:16:50;;;;;;;25.17;23.02;;;14.70;99.90;;;;;;4978387;28;20046;-74
2023/09/23 10:19:27;;;;;;;23.88;22.10;;;14.90;99.90;;;;;;4985381;28;20469;-75
2023/09/23 10:22:08;;;;;;;22.45;20.65;;;15.30;99.90;;;;;;4958992;28;20038;-75
2023/09/23 10:24:35;;;;;;;23.63;21.83;;;15.30;99.90;;;;;;4979230;28;20058;-76
2023/09/23 10:27:12;;;;;;;22.58;20.95;;;15.40;99.90;;;;;;4978189;28;20037;-76
2023/09/23 10:29:49;;;;;;;22.48;20.77;;;15.60;99.90;;;;;;4978093;28;20436;-75
2023/09/23 10:32:17;;;;;;;23.17;21.00;;;15.20;99.90;;;;;;4977872;28;20496;-76
2023/09/23 10:34:46;;;;;;;22.27;20.50;;;15.00;99.90;;;;;;4964843;28;20038;-76
2023/09/23 10:37:29;;;;;;;22.10;20.67;;;15.00;99.90;;;;;;4980379;28;20050;-78
2023/09/23 10:40:13;;;;;;;23.35;21.42;;;15.10;99.90;;;;;;4978484;28;20550;-74
2023/09/23 10:42:48;;;;;;;22.63;20.85;;;15.10;99.90;;;;;;4977310;28;20546;-75
2023/09/23 10:45:17;;;;;;;23.05;21.52;;;15.10;99.90;;;;;;4975864;28;20746;-76
2023/09/23 10:47:44;;;;;;;24.40;22.60;;;14.90;99.90;;;;;;4983974;28;20104;-75
2023/09/23 10:50:11;;;;;;;24.33;22.30;;;14.80;99.90;;;;;;4981034;28;20051;-75
2023/09/23 10:52:39;;;;;;;24.08;22.38;;;14.80;99.90;;;;;;4981195;28;20124;-74
2023/09/23 10:55:09;;;;;;;22.98;21.48;;;14.80;99.90;;;;;;4975523;28;20444;-74
2023/09/23 10:57:36;;;;;;;25.00;23.13;;;15.20;99.90;;;;;;4994375;28;20057;-76
2023/09/23 11:00:16;;;;;;;22.95;21.17;;;15.70;99.90;;;;;;4968715;28;20042;-76
2023/09/23 11:02:44;;;;;;;22.50;20.90;;;16.40;99.90;;;;;;4974354;28;20050;-75
2023/09/23 11:05:11;;;;;;;23.35;21.50;;;16.50;99.90;;;;;;4979067;28;20045;-77
2023/09/23 11:07:42;;;;;;;24.60;22.80;;;16.50;99.90;;;;;;4976328;28;20427;-76
2023/09/23 11:10:11;;;;;;;22.75;21.15;;;16.10;99.90;;;;;;4975266;28;20678;-76
2023/09/23 11:12:42;;;;;;;22.88;21.27;;;15.80;99.90;;;;;;4978108;28;20131;-75
2023/09/23 11:15:11;;;;;;;22.80;21.27;;;15.50;99.90;;;;;;4981225;28;20116;-75
2023/09/23 11:17:41;;;;;;;23.25;21.58;;;15.40;99.90;;;;;;4985019;28;20408;-74
2023/09/23 11:20:10;;;;;;;23.20;21.23;;;15.30;99.90;;;;;;4981103;28;20061;-75
2023/09/23 11:22:37;;;;;;;23.30;21.60;;;15.40;99.90;;;;;;5008375;28;20050;-74
2023/09/23 11:25:12;;;;;;;22.20;20.70;;;15.40;99.90;;;;;;4984160;28;20070;-74
2023/09/23 11:27:39;;;;;;;;;;;15.40;99.90;;;;;;4984044;28;20055;-75
2023/09/23 11:30:07;;;;;;;25.50;23.80;;;15.40;99.90;;;;;;4978972;28;20427;-75
2023/09/23 11:32:35;;;;;;;23.73;21.90;;;15.60;99.90;;;;;;4974811;28;20150;-75
2023/09/23 11:35:02;;;;;;;24.40;22.63;;;15.90;99.90;;;;;;4970595;28;20047;-74
2023/09/23 11:37:29;;;;;;;22.80;20.77;;;16.00;99.90;;;;;;4977038;28;20042;-74
2023/09/23 11:39:56;;;;;;;21.98;20.30;;;16.20;99.90;;;;;;4980189;28;20060;-75
2023/09/23 11:42:24;;;;;;;24.05;22.35;;;16.00;99.90;;;;;;4982479;28;20042;-75
2023/09/23 11:44:50;;;;;;;24.25;22.60;;;16.10;99.90;;;;;;4987096;28;20511;-75
2023/09/23 11:47:21;;;;;;;22.13;20.25;;;16.30;99.90;;;;;;4993742;28;20085;-76
2023/09/23 11:49:49;;;;;;;21.42;19.95;;;16.70;99.90;;;;;;4969745;28;20685;-76
2023/09/23 11:52:16;;;;;;;21.65;20.13;;;16.90;99.90;;;;;;4984006;28;20053;-76
2023/09/23 11:54:46;;;;;;;22.27;20.48;;;16.80;99.90;;;;;;4980629;28;20112;-75
2023/09/23 11:57:13;;;;;;;20.85;19.45;;;16.60;99.90;;;;;;4977078;28;20041;-77
2023/09/23 11:59:40;;;;;;;21.15;19.75;;;16.60;99.90;;;;;;4979293;28;20046;-77
2023/09/23 12:02:08;;;;;;;22.73;21.10;;;16.80;99.90;;;;;;4979602;28;20369;-76
2023/09/23 12:04:36;;;;;;;21.88;20.20;;;17.00;99.90;;;;;;4979469;28;20529;-76
2023/09/23 12:07:04;;;;;;;23.15;21.52;;;17.00;99.90;;;;;;4979264;28;20045;-76
2023/09/23 12:09:34;;;;;;;23.23;21.70;;;17.20;99.90;;;;;;4976346;28;20084;-77
2023/09/23 12:12:01;;;;;;;21.88;20.38;;;17.40;99.90;;;;;;4980664;28;20042;-76
2023/09/23 12:14:29;;;;;;;22.08;20.38;;;17.80;99.90;;;;;;4985145;28;20045;-73
2023/09/23 12:16:55;;;;;;;20.75;19.33;;;18.10;99.90;;;;;;5010146;28;20038;-75
2023/09/23 12:19:22;;;;;;;20.75;19.25;;;18.10;99.90;;;;;;4977717;28;20076;-75
2023/09/23 12:21:49;;;;;;;22.35;20.58;;;17.60;99.90;;;;;;4976612;28;20046;-73
2023/09/23 12:24:16;;;;;;;22.67;21.10;;;17.30;99.90;;;;;;4965974;28;20073;-75
2023/09/23 12:26:43;;;;;;;24.85;23.08;;;17.00;99.90;;;;;;4968290;28;20046;-75
2023/09/23 12:29:09;;;;;;;24.20;22.30;;;16.80;99.90;;;;;;4972549;28;20042;-75
2023/09/23 12:31:37;;;;;;;22.60;21.20;;;17.10;99.90;;;;;;4983822;28;20034;-75
2023/09/23 12:34:03;;;;;;;23.65;21.77;;;17.30;99.90;;;;;;4978128;28;20050;-75
2023/09/23 12:36:30;;;;;;;21.85;20.55;;;17.60;99.90;;;;;;4990937;28;20045;-76